Time;durP1;ratioP1;P1;durP2;ratioP2;P2;SDS_P1;SDS_P2;PMS_P1;PMS_P2;Temp;Humidity;BMP_temperature;BMP_pressure;BME280_temperature;BME280_humidity;BME280_pressure;Samples;Min_cycle;Max_cycle;Signal;HPM_P1;HPM_P2
2021/07/19 00:00:22;;;;;;;1.48;0.50;;;;;;;15.56;100.00;100628.47;5022106;28;20048;-51
2021/07/19 00:03:25;;;;;;;6.22;0.45;;;;;;;15.54;100.00;100625.38;5029602;28;20087;-51
2021/07/19 00:06:29;;;;;;;0.73;0.38;;;;;;;15.52;100.00;100625.09;5021125;28;20068;-50
2021/07/19 00:09:33;;;;;;;0.50;0.35;;;;;;;15.47;100.00;100620.97;5020996;28;20052;-51
2021/07/19 00:12:38;;;;;;;0.88;0.43;;;;;;;15.42;100.00;100621.63;5031875;28;20060;-52
2021/07/19 00:15:43;;;;;;;2.45;0.50;;;;;;;15.40;100.00;100620.59;5042787;28;20424;-51
2021/07/19 00:18:48;;;;;;;2.28;0.60;;;;;;;15.32;100.00;100625.84;5044379;28;20079;-51
2021/07/19 00:21:52;;;;;;;5.38;0.60;;;;;;;15.29;100.00;100624.00;5044326;28;20048;-51
2021/07/19 00:24:56;;;;;;;1.15;0.35;;;;;;;15.26;100.00;100632.63;5043037;28;20068;-50
2021/07/19 00:28:00;;;;;;;2.17;0.73;;;;;;;15.19;100.00;100628.19;5040956;28;20058;-51
2021/07/19 00:31:05;;;;;;;1.73;0.40;;;;;;;15.17;100.00;100631.50;5040249;28;20075;-51
2021/07/19 00:34:09;;;;;;;19.27;0.85;;;;;;;15.19;100.00;100628.97;5042826;28;20347;-51
2021/07/19 00:37:12;;;;;;;4.07;0.50;;;;;;;15.18;100.00;100627.41;5040285;28;20036;-52
2021/07/19 00:40:25;;;;;;;3.60;0.55;;;;;;;15.14;100.00;100632.47;5042310;28;20231;-51
2021/07/19 00:43:30;;;;;;;6.55;0.95;;;;;;;15.06;100.00;100628.53;5042221;28;20130;-51
2021/07/19 00:46:35;;;;;;;6.93;0.73;;;;;;;15.03;100.00;100632.31;5043097;28;20051;-51
2021/07/19 00:49:42;;;;;;;1.85;0.82;;;;;;;15.04;100.00;100625.44;5042367;28;20326;-51
2021/07/19 00:52:46;;;;;;;0.82;0.20;;;;;;;15.01;100.00;100623.59;5040999;28;20060;-50
2021/07/19 00:55:54;;;;;;;2.60;0.30;;;;;;;15.00;100.00;100616.47;5040526;28;20059;-50
2021/07/19 00:59:03;;;;;;;3.17;0.68;;;;;;;14.97;100.00;100625.84;5040317;28;20114;-50
2021/07/19 01:02:07;;;;;;;2.20;0.50;;;;;;;14.94;100.00;100615.59;5042229;28;20051;-51
2021/07/19 01:05:11;;;;;;;0.82;0.20;;;;;;;14.93;100.00;100611.25;5036012;28;20047;-51
2021/07/19 01:08:18;;;;;;;1.05;0.20;;;;;;;14.88;100.00;100614.72;5039955;28;20331;-51
2021/07/19 01:11:22;;;;;;;1.20;0.45;;;;;;;14.83;100.00;100618.25;5040027;28;20126;-51
2021/07/19 01:14:26;;;;;;;1.55;0.65;;;;;;;14.81;100.00;100617.94;5043550;28;20048;-51
2021/07/19 01:17:31;;;;;;;9.70;0.45;;;;;;;14.79;100.00;100616.91;5021720;28;20075;-50
2021/07/19 01:20:51;;;;;;;1.38;0.45;;;;;;;14.77;100.00;100620.16;5021650;28;20356;-51
2021/07/19 01:24:10;;;;;;;3.33;1.00;;;;;;;14.74;100.00;100621.16;5021038;28;20548;-50
2021/07/19 01:27:58;;;;;;;1.90;0.40;;;;;;;14.68;100.00;100614.69;5021216;28;20041;-50
2021/07/19 01:31:09;;;;;;;7.13;1.10;;;;;;;14.60;100.00;100613.53;5020410;28;20071;-50
2021/07/19 01:34:20;;;;;;;1.02;0.20;;;;;;;14.59;100.00;100612.00;5017233;28;20564;-51
2021/07/19 01:37:26;;;;;;;2.85;0.13;;;;;;;14.58;100.00;100602.03;5020872;28;20041;-50
2021/07/19 01:40:30;;;;;;;2.65;0.40;;;;;;;14.58;100.00;100607.63;5022929;28;20052;-50
2021/07/19 01:43:34;;;;;;;9.00;0.88;;;;;;;14.58;100.00;100607.63;5015908;28;20048;-53
2021/07/19 01:46:41;;;;;;;4.10;0.88;;;;;;;14.56;100.00;100603.75;5029872;28;20261;-51
2021/07/19 01:49:46;;;;;;;1.50;0.20;;;;;;;14.55;100.00;100603.00;5020041;28;20056;-52
2021/07/19 01:52:51;;;;;;;0.98;0.38;;;;;;;14.45;100.00;100607.16;5019583;28;20076;-50
2021/07/19 01:55:57;;;;;;;0.73;0.45;;;;;;;14.34;100.00;100606.97;5018174;28;20623;-51
2021/07/19 01:59:02;;;;;;;1.30;0.45;;;;;;;14.24;100.00;100599.88;5019840;28;20083;-51
2021/07/19 02:02:07;;;;;;;1.77;0.68;;;;;;;14.15;100.00;100597.16;5020381;28;20052;-51
2021/07/19 02:05:13;;;;;;;9.32;1.35;;;;;;;14.11;100.00;100596.59;5016267;28;20055;-50
2021/07/19 02:08:19;;;;;;;1.13;0.60;;;;;;;14.13;100.00;100599.69;5017126;28;20044;-50
2021/07/19 02:11:27;;;;;;;3.72;0.95;;;;;;;14.14;100.00;100590.03;5022591;28;20056;-51
2021/07/19 02:14:33;;;;;;;1.02;0.20;;;;;;;14.03;100.00;100589.84;5040091;28;20807;-50
2021/07/19 02:17:38;;;;;;;1.27;0.50;;;;;;;14.01;100.00;100592.34;5042262;28;20783;-51
2021/07/19 02:20:43;;;;;;;1.92;0.60;;;;;;;13.96;100.00;100590.19;5041488;28;20071;-51
2021/07/19 02:23:47;;;;;;;1.60;0.50;;;;;;;13.97;100.00;100591.75;5040762;28;20048;-51
2021/07/19 02:26:53;;;;;;;2.92;0.38;;;;;;;13.97;100.00;100597.38;5041804;28;20043;-51
2021/07/19 02:30:00;;;;;;;4.68;0.85;;;;;;;13.97;100.00;100586.16;5041270;28;20052;-50
2021/07/19 02:33:04;;;;;;;1.35;0.40;;;;;;;13.99;100.00;100583.66;5041797;28;20055;-51
2021/07/19 02:36:11;;;;;;;2.25;0.60;;;;;;;13.95;100.00;100594.25;5039513;28;20055;-50
2021/07/19 02:39:16;;;;;;;6.20;1.48;;;;;;;13.91;100.00;100588.06;5041353;28;20691;-51
2021/07/19 02:42:21;;;;;;;2.00;0.52;;;;;;;13.88;100.00;100578.59;5040133;28;20055;-50
2021/07/19 02:45:27;;;;;;;2.50;0.45;;;;;;;13.83;100.00;100575.69;5040723;28;20687;-51
2021/07/19 02:48:36;;;;;;;0.50;0.50;;;;;;;13.79;100.00;100583.50;5041208;28;20585;-51
2021/07/19 02:51:40;;;;;;;1.70;0.40;;;;;;;13.75;100.00;100578.13;5039787;28;20765;-50
2021/07/19 02:54:45;;;;;;;1.33;0.40;;;;;;;13.72;100.00;100581.09;5041796;28;20053;-50
2021/07/19 02:57:49;;;;;;;2.10;0.90;;;;;;;13.68;100.00;100576.47;5037752;28;20696;-51
2021/07/19 03:00:53;;;;;;;4.57;0.70;;;;;;;13.62;100.00;100575.56;5038227;28;20052;-51
2021/07/19 03:04:00;;;;;;;1.50;0.30;;;;;;;13.61;100.00;100571.22;5039986;28;20107;-50
2021/07/19 03:07:06;;;;;;;2.53;0.95;;;;;;;13.59;100.00;100573.72;5038100;28;20520;-50
2021/07/19 03:10:12;;;;;;;10.35;1.00;;;;;;;13.58;100.00;100576.97;5040791;28;20405;-51
2021/07/19 03:13:29;;;;;;;3.95;0.70;;;;;;;13.56;100.00;100574.69;5042757;28;20344;-51
2021/07/19 03:16:34;;;;;;;0.35;0.35;;;;;;;13.53;100.00;100580.47;5042583;28;20078;-50
2021/07/19 03:19:39;;;;;;;0.85;0.65;;;;;;;13.45;100.00;100574.44;5044525;28;20185;-51
2021/07/19 03:22:44;;;;;;;3.28;0.30;;;;;;;13.36;100.00;100577.31;5043038;28;20040;-50
2021/07/19 03:25:49;;;;;;;1.35;0.57;;;;;;;13.38;100.00;100577.59;5042156;28;20084;-51
2021/07/19 03:28:55;;;;;;;8.40;0.82;;;;;;;13.36;100.00;100568.91;5039960;28;20049;-50
2021/07/19 03:32:01;;;;;;;2.33;0.50;;;;;;;13.36;100.00;100570.97;5043090;28;20056;-51
2021/07/19 03:35:07;;;;;;;1.52;0.40;;;;;;;13.30;100.00;100573.63;5044984;28;20075;-51
2021/07/19 03:38:14;;;;;;;0.70;0.20;;;;;;;13.25;100.00;100574.31;5043524;28;20067;-50
2021/07/19 03:41:19;;;;;;;2.05;0.20;;;;;;;13.19;100.00;100573.38;5042971;28;20096;-50
2021/07/19 03:44:24;;;;;;;2.97;0.80;;;;;;;13.15;100.00;100570.00;5036961;28;20165;-50
2021/07/19 03:47:30;;;;;;;2.10;0.43;;;;;;;13.11;100.00;100563.81;5044703;28;20056;-51
2021/07/19 03:50:36;;;;;;;2.03;0.60;;;;;;;13.11;100.00;100569.41;5044032;28;20856;-50
2021/07/19 03:53:40;;;;;;;1.20;0.50;;;;;;;13.12;100.00;100562.56;5040632;28;20294;-51
2021/07/19 03:56:46;;;;;;;1.77;0.70;;;;;;;13.07;100.00;100570.81;5042492;28;20040;-50
2021/07/19 03:59:50;;;;;;;0.80;0.43;;;;;;;13.01;100.00;100567.91;5038879;28;20063;-50
2021/07/19 04:02:55;;;;;;;1.35;0.50;;;;;;;12.97;100.00;100567.28;5047916;28;20654;-51
2021/07/19 04:06:02;;;;;;;1.65;0.80;;;;;;;12.95;100.00;100561.38;5043042;28;20575;-50
2021/07/19 04:09:07;;;;;;;0.68;0.30;;;;;;;12.91;100.00;100563.59;5033592;28;20044;-50
2021/07/19 04:12:15;;;;;;;1.98;0.65;;;;;;;12.86;100.00;100567.03;5039508;28;20063;-50
2021/07/19 04:15:19;;;;;;;1.98;0.32;;;;;;;12.86;100.00;100558.66;5043822;28;20043;-50
2021/07/19 04:18:22;;;;;;;4.78;1.38;;;;;;;12.82;100.00;100560.84;5041724;28;20052;-51
2021/07/19 04:21:26;;;;;;;1.45;0.30;;;;;;;12.83;100.00;100562.38;5043102;28;20432;-50
2021/07/19 04:24:32;;;;;;;1.05;0.50;;;;;;;12.85;100.00;100559.91;5041714;28;20508;-50
2021/07/19 04:27:38;;;;;;;1.35;0.25;;;;;;;12.87;100.00;100560.19;5043792;28;20115;-50
2021/07/19 04:30:44;;;;;;;9.95;0.70;;;;;;;12.88;100.00;100559.75;5044966;28;20500;-51
2021/07/19 04:33:49;;;;;;;1.88;0.60;;;;;;;12.88;100.00;100565.34;5041484;28;20060;-50
2021/07/19 04:36:59;;;;;;;4.07;0.80;;;;;;;12.90;100.00;100562.06;5042329;28;20048;-51
2021/07/19 04:40:06;;;;;;;0.70;0.40;;;;;;;12.90;100.00;100556.47;5041020;28;20075;-51
2021/07/19 04:43:10;;;;;;;2.60;0.63;;;;;;;12.91;100.00;100558.00;5042537;28;20063;-51
2021/07/19 04:46:17;;;;;;;1.95;1.02;;;;;;;12.91;100.00;100563.59;5041722;28;20047;-50
2021/07/19 04:49:20;;;;;;;4.30;0.68;;;;;;;12.95;100.00;100562.16;5040314;28;20051;-51
2021/07/19 04:52:24;;;;;;;3.83;0.85;;;;;;;13.01;100.00;100565.09;5041978;28;20040;-50
2021/07/19 04:55:31;;;;;;;4.10;0.80;;;;;;;13.05;100.00;100557.34;5042535;28;20055;-50
2021/07/19 04:58:36;;;;;;;3.38;0.35;;;;;;;13.06;100.00;100558.88;5039296;28;20637;-50
2021/07/19 05:01:41;;;;;;;6.70;0.77;;;;;;;13.05;100.00;100557.34;5040872;28;20056;-50
2021/07/19 05:04:47;;;;;;;2.53;0.65;;;;;;;13.12;100.00;100570.19;5038767;28;20432;-50
2021/07/19 05:07:55;;;;;;;3.20;0.47;;;;;;;13.19;100.00;100565.00;5033975;28;20075;-50
2021/07/19 05:11:01;;;;;;;18.17;3.70;;;;;;;13.21;100.00;100565.28;5039220;28;21028;-50
2021/07/19 05:14:07;;;;;;;3.33;0.60;;;;;;;13.20;100.00;100558.16;5041969;28;20048;-51
2021/07/19 05:17:14;;;;;;;0.82;0.55;;;;;;;13.28;100.00;100569.75;5034330;28;20071;-50
2021/07/19 05:20:22;;;;;;;2.90;0.57;;;;;;;13.35;100.00;100564.59;5037854;28;20148;-50
2021/07/19 05:23:27;;;;;;;3.63;1.38;;;;;;;13.42;100.00;100563.44;5042263;28;20055;-52
2021/07/19 05:26:34;;;;;;;2.70;0.80;;;;;;;13.49;100.00;100561.03;5041517;28;20427;-50
2021/07/19 05:29:39;;;;;;;2.80;0.70;;;;;;;13.59;100.00;100559.72;5041780;28;20043;-51
2021/07/19 05:32:45;;;;;;;3.47;0.80;;;;;;;13.69;100.00;100566.00;5041576;28;20544;-49
2021/07/19 05:35:51;;;;;;;3.33;0.30;;;;;;;13.80;100.00;100569.03;5036115;28;20060;-51
2021/07/19 05:38:55;;;;;;;9.63;0.60;;;;;;;13.89;100.00;100562.56;5042852;28;20337;-50
2021/07/19 05:41:59;;;;;;;17.65;0.85;;;;;;;13.94;100.00;100559.09;5034213;28;20055;-51
2021/07/19 05:45:02;;;;;;;0.93;0.13;;;;;;;14.01;100.00;100564.34;5044622;28;20048;-50
2021/07/19 05:48:07;;;;;;;2.65;0.70;;;;;;;14.11;100.00;100574.19;5042876;28;20044;-55
2021/07/19 05:51:11;;;;;;;0.82;0.73;;;;;;;14.13;100.00;100574.47;5039335;28;20547;-55
2021/07/19 05:54:15;;;;;;;0.50;0.32;;;;;;;14.14;100.00;100567.63;5034908;28;20515;-54
2021/07/19 05:57:19;;;;;;;0.90;0.35;;;;;;;14.23;100.00;100567.50;5035632;28;20719;-56
2021/07/19 06:00:22;;;;;;;1.67;0.30;;;;;;;14.33;100.00;100571.81;5038025;28;20083;-55
2021/07/19 06:03:27;;;;;;;2.08;0.50;;;;;;;14.43;100.00;100562.03;5039448;28;20098;-55
2021/07/19 06:06:31;;;;;;;9.63;0.88;;;;;;;14.58;100.00;100556.38;5042854;28;20424;-55
2021/07/19 06:09:34;;;;;;;3.00;0.40;;;;;;;14.72;100.00;100555.59;5039466;28;20072;-55
2021/07/19 06:12:40;;;;;;;5.40;0.77;;;;;;;14.80;100.00;100563.13;5040293;28;20759;-53
2021/07/19 06:15:45;;;;;;;3.80;0.60;;;;;;;14.90;100.00;100558.19;5041570;28;20563;-55
2021/07/19 06:18:49;;;;;;;2.88;0.68;;;;;;;14.99;100.00;100558.81;5040185;28;20056;-56
2021/07/19 06:21:53;;;;;;;2.65;1.20;;;;;;;15.11;100.00;100556.94;5041029;28;20343;-55
2021/07/19 06:24:56;;;;;;;0.95;0.43;;;;;;;15.22;100.00;100557.09;5041023;28;20067;-55
2021/07/19 06:28:04;;;;;;;1.23;0.82;;;;;;;15.33;100.00;100560.03;5039776;28;20051;-56
2021/07/19 06:31:08;;;;;;;3.33;0.57;;;;;;;15.45;100.00;100558.94;5041839;28;20052;-55
2021/07/19 06:34:12;;;;;;;2.42;0.47;;;;;;;15.54;100.00;100555.19;5037068;28;20079;-55
2021/07/19 06:37:16;;;;;;;2.33;0.55;;;;;;;15.65;100.00;100553.31;5040084;28;20243;-56
2021/07/19 06:40:20;;;;;;;11.32;0.75;;;;;;;15.75;100.00;100557.47;5035794;28;20079;-55
2021/07/19 06:43:24;;;;;;;1.70;0.35;;;;;;;15.87;100.00;100559.13;5040471;28;20037;-56
2021/07/19 06:46:27;;;;;;;2.72;0.57;;;;;;;16.00;100.00;100555.19;5039180;28;20060;-56
2021/07/19 06:49:31;;;;;;;5.15;1.48;;;;;;;16.10;100.00;100553.75;5031570;28;20052;-50
2021/07/19 06:52:36;;;;;;;2.40;0.55;;;;;;;16.22;100.00;100550.53;5038743;28;20055;-50
2021/07/19 06:55:39;;;;;;;2.90;0.90;;;;;;;16.36;100.00;100555.28;5038224;28;20071;-51
2021/07/19 06:58:46;;;;;;;2.17;0.63;;;;;;;16.49;100.00;100544.38;5039052;28;20612;-51
2021/07/19 07:01:50;;;;;;;0.45;0.13;;;;;;;16.62;100.00;100549.63;5039879;28;20225;-51
2021/07/19 07:04:53;;;;;;;3.28;0.38;;;;;;;16.68;100.00;100548.38;5039092;28;21100;-51
2021/07/19 07:07:57;;;;;;;1.52;0.57;;;;;;;16.76;100.00;100554.34;5041581;28;20055;-51
2021/07/19 07:11:02;;;;;;;1.33;0.60;;;;;;;16.82;100.00;100551.53;5039891;28;20189;-50
2021/07/19 07:14:05;;;;;;;4.97;0.32;;;;;;;16.94;100.00;100551.09;5040030;28;20501;-50
2021/07/19 07:17:09;;;;;;;2.70;0.40;;;;;;;17.04;100.00;100551.69;5036363;28;20527;-50
2021/07/19 07:20:13;;;;;;;0.82;0.47;;;;;;;17.14;100.00;100555.81;5040388;28;20423;-50
2021/07/19 07:23:18;;;;;;;2.63;0.63;;;;;;;17.42;100.00;100553.91;5039930;28;20051;-50
2021/07/19 07:26:23;;;;;;;3.22;0.35;;;;;;;17.42;100.00;100548.28;5031807;28;20048;-50
2021/07/19 07:29:26;;;;;;;1.15;0.40;;;;;;;17.42;100.00;100542.63;5041023;28;20071;-51
2021/07/19 07:32:30;;;;;;;1.38;0.30;;;;;;;17.49;100.00;100539.34;5040452;28;20072;-51
2021/07/19 07:35:40;;;;;;;1.10;0.30;;;;;;;17.58;100.00;100544.00;5041114;28;20188;-51
2021/07/19 07:38:47;;;;;;;3.67;0.90;;;;;;;17.61;100.00;100543.75;5040154;28;20079;-51
2021/07/19 07:41:52;;;;;;;1.08;0.17;;;;;;;17.65;100.00;100532.25;5042182;28;20348;-50
2021/07/19 07:44:56;;;;;;;0.50;0.00;;;;;;;17.74;100.00;100532.00;5029033;28;20331;-51
2021/07/19 07:48:00;;;;;;;0.93;0.10;;;;;;;17.83;100.00;100532.56;5032942;28;20048;-51
2021/07/19 07:51:10;;;;;;;0.30;0.17;;;;;;;17.94;100.00;100531.78;5043418;28;20044;-51
2021/07/19 07:54:13;;;;;;;6.43;0.30;;;;;;;17.99;100.00;100522.59;5043352;28;20848;-51
2021/07/19 07:57:17;;;;;;;0.77;0.10;;;;;;;18.08;100.00;100514.63;5030073;28;20083;-51
2021/07/19 08:00:23;;;;;;;0.20;0.13;;;;;;;18.17;100.00;100528.50;5027147;28;20083;-51
2021/07/19 08:03:27;;;;;;;0.60;0.05;;;;;;;18.28;100.00;100521.34;5017421;28;20306;-51
2021/07/19 08:06:30;;;;;;;2.03;0.45;;;;;;;18.39;100.00;100518.47;5054004;28;20067;-51
2021/07/19 08:09:33;;;;;;;6.15;0.40;;;;;;;18.40;100.00;100520.03;5054011;28;20068;-50
2021/07/19 08:12:37;;;;;;;0.45;0.10;;;;;;;18.48;100.00;100521.06;5054223;28;20056;-50
2021/07/19 08:15:41;;;;;;;1.60;0.17;;;;;;;18.64;100.00;100520.31;5057536;28;20409;-50
2021/07/19 08:18:44;;;;;;;0.60;0.10;;;;;;;18.82;100.00;100514.88;5061779;28;20610;-50
2021/07/19 08:21:47;;;;;;;0.95;0.05;;;;;;;19.15;100.00;100514.00;5053663;28;20060;-50
2021/07/19 08:24:51;;;;;;;0.77;0.13;;;;;;;19.33;100.00;100510.59;5065545;28;20048;-51
2021/07/19 08:27:55;;;;;;;0.73;0.10;;;;;;;19.54;100.00;100502.56;5062286;28;20055;-50
2021/07/19 08:30:59;;;;;;;1.13;0.30;;;;;;;19.76;100.00;100498.81;5053663;28;20504;-50
2021/07/19 08:34:04;;;;;;;0.22;0.00;;;;;;;19.99;100.00;100500.97;5065437;28;20055;-50
2021/07/19 08:37:07;;;;;;;4.93;0.40;;;;;;;20.22;100.00;100498.78;5064640;28;20523;-50
2021/07/19 08:40:12;;;;;;;3.33;0.20;;;;;;;20.46;100.00;100498.06;5051920;28;20064;-50
2021/07/19 08:43:16;;;;;;;0.10;0.08;;;;;;;20.68;100.00;100501.41;5052335;28;20056;-50
2021/07/19 08:46:19;;;;;;;0.45;0.05;;;;;;;20.86;100.00;100500.72;5052452;28;20063;-51
2021/07/19 08:49:23;;;;;;;6.60;0.10;;;;;;;21.13;100.00;100499.69;5053175;28;20500;-50
2021/07/19 08:52:27;;;;;;;0.65;0.00;;;;;;;21.46;100.00;100494.88;5052911;28;20064;-50
2021/07/19 08:55:31;;;;;;;1.85;0.00;;;;;;;21.67;100.00;100493.03;5051574;28;20401;-50
2021/07/19 08:58:35;;;;;;;0.20;0.10;;;;;;;21.83;100.00;100483.53;5051797;28;20052;-50
2021/07/19 09:01:40;;;;;;;0.30;0.00;;;;;;;21.94;100.00;100489.03;5052069;28;20120;-50
2021/07/19 09:04:45;;;;;;;1.58;0.13;;;;;;;22.13;100.00;100486.97;5050857;28;20060;-51
2021/07/19 09:07:50;;;;;;;2.53;0.10;;;;;;;22.26;100.00;100478.44;5051719;28;20056;-51
2021/07/19 09:10:54;;;;;;;0.45;0.00;;;;;;;22.42;100.00;100480.25;5054953;28;20513;-50
2021/07/19 09:14:01;;;;;;;1.08;0.10;;;;;;;22.63;100.00;100471.16;5052492;28;20520;-50
2021/07/19 09:17:04;;;;;;;0.10;0.10;;;;;;;22.78;100.00;100472.16;5050080;28;20063;-50
2021/07/19 09:20:13;;;;;;;2.40;0.38;;;;;;;22.93;100.00;100466.69;5052473;28;20063;-50
2021/07/19 09:23:28;;;;;;;0.82;0.25;;;;;;;23.15;100.00;100465.47;5050661;28;20080;-50
2021/07/19 09:26:36;;;;;;;0.22;0.10;;;;;;;23.31;100.00;100467.16;5052075;28;20056;-51
2021/07/19 09:29:40;;;;;;;0.28;0.15;;;;;;;23.40;100.00;100472.44;5052551;28;20409;-50
2021/07/19 09:32:58;;;;;;;1.55;0.17;;;;;;;23.61;100.00;100461.09;5051453;28;20076;-50
2021/07/19 09:36:03;;;;;;;1.55;0.10;;;;;;;23.77;100.00;100463.56;5052161;28;20048;-51
2021/07/19 09:39:09;;;;;;;0.50;0.00;;;;;;;23.90;100.00;100465.59;5051690;28;20048;-51
2021/07/19 09:42:16;;;;;;;5.15;0.20;;;;;;;24.04;100.00;100467.84;5052321;28;20076;-50
2021/07/19 09:45:24;;;;;;;0.47;0.00;;;;;;;24.16;100.00;100467.56;5051401;28;20052;-51
2021/07/19 09:48:29;;;;;;;1.90;0.10;;;;;;;24.30;100.00;100474.75;5052014;28;20416;-51
2021/07/19 09:51:35;;;;;;;2.25;0.25;;;;;;;24.37;100.00;100469.09;5051732;28;20075;-50
2021/07/19 09:54:44;;;;;;;8.25;0.10;;;;;;;24.45;100.00;100474.88;5051879;28;20056;-53
2021/07/19 09:57:58;;;;;;;0.95;0.00;;;;;;;24.49;100.00;100461.03;5051405;28;20055;-50
2021/07/19 10:01:02;;;;;;;4.32;0.20;;;;;;;24.59;100.00;100462.03;5051539;28;20421;-51
2021/07/19 10:04:10;;;;;;;5.95;0.52;;;;;;;24.74;100.00;100467.84;5051620;28;20500;-51
2021/07/19 10:07:22;;;;;;;0.90;0.10;;;;;;;24.85;100.00;100464.72;5062465;28;20409;-50
2021/07/19 10:10:37;;;;;;;0.47;0.10;;;;;;;24.96;100.00;100461.56;5050279;28;20059;-48
2021/07/19 10:13:46;;;;;;;0.73;0.20;;;;;;;25.02;100.00;100470.72;5054845;28;20060;-48
2021/07/19 10:16:51;;;;;;;0.50;0.10;;;;;;;25.07;100.00;100461.25;5062361;28;20043;-49
2021/07/19 10:19:56;;;;;;;1.88;0.13;;;;;;;25.12;100.00;100460.31;5059932;28;20052;-48
2021/07/19 10:22:59;;;;;;;0.77;0.38;;;;;;;25.22;100.00;100464.16;5057446;28;20047;-50
2021/07/19 10:26:03;;;;;;;0.95;0.20;;;;;;;25.32;100.00;100468.00;5063526;28;20067;-51
2021/07/19 10:29:07;;;;;;;0.93;0.10;;;;;;;25.40;100.00;100460.22;5059520;28;20052;-48
2021/07/19 10:32:12;;;;;;;7.82;0.57;;;;;;;25.52;100.00;100460.69;5051339;28;20513;-48
2021/07/19 10:35:16;;;;;;;2.83;0.20;;;;;;;25.63;100.00;100462.44;5074096;28;20076;-49
2021/07/19 10:38:26;;;;;;;0.75;0.05;;;;;;;25.71;100.00;100461.13;5059156;28;20060;-48
2021/07/19 10:41:29;;;;;;;0.70;0.13;;;;;;;25.75;100.00;100455.06;5061777;28;20059;-48
2021/07/19 10:44:36;;;;;;;0.75;0.10;;;;;;;25.86;100.00;100449.00;5050363;28;20056;-48
2021/07/19 10:47:53;;;;;;;0.30;0.10;;;;;;;25.90;100.00;100452.25;5051392;28;20068;-48
2021/07/19 10:51:21;;;;;;;1.20;0.17;;;;;;;25.97;100.00;100448.63;5051129;28;20064;-48
2021/07/19 10:54:25;;;;;;;1.45;0.20;;;;;;;26.05;100.00;100443.69;5050353;28;20421;-48
2021/07/19 10:57:39;;;;;;;0.52;0.10;;;;;;;26.08;100.00;100442.53;5051032;28;20059;-49
2021/07/19 11:00:47;;;;;;;0.43;0.35;;;;;;;26.10;100.00;100440.66;5050203;28;20405;-48
2021/07/19 11:03:52;;;;;;;6.13;0.20;;;;;;;26.14;100.00;100443.16;5049958;28;20056;-48
2021/07/19 11:06:57;;;;;;;0.90;0.13;;;;;;;26.24;100.00;100432.69;5050236;28;20052;-48
2021/07/19 11:10:00;;;;;;;0.82;0.10;;;;;;;26.43;100.00;100443.72;5050201;28;20045;-48
2021/07/19 11:13:04;;;;;;;3.88;0.57;;;;;;;26.41;100.00;100434.94;5050189;28;20382;-48
2021/07/19 11:16:15;;;;;;;2.40;0.10;;;;;;;26.49;100.00;100436.47;5049294;28;20402;-48
2021/07/19 11:19:36;;;;;;;0.47;0.08;;;;;;;26.58;100.00;100438.75;5061872;28;20056;-48
2021/07/19 11:22:40;;;;;;;3.75;0.30;;;;;;;26.49;100.00;100442.19;5059381;28;20056;-48
2021/07/19 11:25:44;;;;;;;2.22;0.10;;;;;;;26.52;100.00;100440.28;5050939;28;20056;-48
2021/07/19 11:28:47;;;;;;;0.57;0.28;;;;;;;26.65;100.00;100432.28;5064181;28;20060;-48
2021/07/19 11:32:07;;;;;;;2.38;0.20;;;;;;;26.68;100.00;100431.09;5065747;28;20063;-48
2021/07/19 11:35:21;;;;;;;1.55;0.20;;;;;;;26.65;100.00;100425.78;5050807;28;20107;-48
2021/07/19 11:38:36;;;;;;;0.43;0.15;;;;;;;26.78;100.00;100425.59;5053952;28;20064;-48
2021/07/19 11:41:40;;;;;;;2.05;0.32;;;;;;;26.99;100.00;100415.44;5054717;28;20060;-48
2021/07/19 11:44:44;;;;;;;0.52;0.10;;;;;;;27.15;100.00;100419.00;5054480;28;20060;-48
2021/07/19 11:47:51;;;;;;;0.88;0.20;;;;;;;27.24;100.00;100420.50;5045991;28;20059;-48
2021/07/19 11:50:57;;;;;;;1.27;0.00;;;;;;;27.29;100.00;100419.53;5062370;28;20060;-48
2021/07/19 11:54:01;;;;;;;0.22;0.00;;;;;;;27.33;100.00;100411.28;5052556;28;20048;-49
2021/07/19 11:57:05;;;;;;;3.08;0.10;;;;;;;27.45;100.00;100424.59;5035443;28;20061;-48
2021/07/19 12:00:10;;;;;;;0.20;0.17;;;;;;;27.55;100.00;100414.06;5051568;28;20064;-48
2021/07/19 12:03:15;;;;;;;1.42;0.10;;;;;;;27.55;100.00;100407.56;5053221;28;20059;-48
2021/07/19 12:06:18;;;;;;;2.13;0.20;;;;;;;27.47;100.00;100412.56;5053300;28;20254;-49
2021/07/19 12:09:22;;;;;;;0.95;0.20;;;;;;;27.51;100.00;100410.06;5054295;28;20056;-48
2021/07/19 12:12:27;;;;;;;0.38;0.17;;;;;;;27.45;100.00;100416.03;5054481;28;20048;-49
2021/07/19 12:15:30;;;;;;;0.50;0.20;;;;;;;27.60;100.00;100409.44;5056053;28;20060;-49
2021/07/19 12:18:40;;;;;;;4.05;0.10;;;;;;;27.49;100.00;100404.94;5063506;28;20075;-48
2021/07/19 12:21:47;;;;;;;0.47;0.17;;;;;;;27.56;100.00;100407.00;5054168;28;20116;-49
2021/07/19 12:24:55;;;;;;;2.40;0.40;;;;;;;27.74;100.00;100404.97;5069148;28;20493;-48
2021/07/19 12:28:00;;;;;;;3.63;0.10;;;;;;;27.98;100.00;100397.78;5053931;28;20072;-48
2021/07/19 12:31:14;;;;;;;1.67;0.10;;;;;;;27.64;100.00;100393.41;5065848;28;20059;-49
2021/07/19 12:34:19;;;;;;;2.15;0.20;;;;;;;26.96;100.00;100410.84;5062077;28;20112;-49
2021/07/19 12:37:23;;;;;;;2.28;0.32;;;;;;;26.55;100.00;100394.16;5064335;28;20072;-49
2021/07/19 12:40:27;;;;;;;4.32;0.60;;;;;;;26.85;100.00;100388.44;5053980;28;20068;-48
2021/07/19 12:43:31;;;;;;;2.80;0.30;;;;;;;27.17;100.00;100384.09;5073576;28;20055;-48
2021/07/19 12:46:46;;;;;;;3.05;0.40;;;;;;;27.46;100.00;100393.91;5073786;28;20052;-48
2021/07/19 12:49:50;;;;;;;7.18;0.22;;;;;;;27.77;100.00;100392.34;5073752;28;20051;-48
2021/07/19 12:52:54;;;;;;;0.77;0.20;;;;;;;28.05;100.00;100385.47;5073529;28;20056;-48
2021/07/19 12:56:12;;;;;;;1.35;0.13;;;;;;;28.18;100.00;100383.06;5073355;28;20063;-48
2021/07/19 12:59:16;;;;;;;1.00;0.17;;;;;;;28.23;100.00;100378.47;5073229;28;20063;-48
2021/07/19 13:02:21;;;;;;;3.30;0.40;;;;;;;28.20;100.00;100386.13;5072357;28;20424;-49
2021/07/19 13:05:24;;;;;;;3.75;0.43;;;;;;;28.14;100.00;100377.00;5072699;28;20056;-48
2021/07/19 13:08:33;;;;;;;2.45;0.20;;;;;;;28.28;100.00;100375.38;5073048;28;20055;-48
2021/07/19 13:11:40;;;;;;;4.60;0.80;;;;;;;28.46;100.00;100376.13;5070963;28;20067;-49
2021/07/19 13:14:46;;;;;;;0.80;0.10;;;;;;;28.46;100.00;100362.56;5052629;28;20068;-49
2021/07/19 13:18:01;;;;;;;1.15;0.03;;;;;;;28.37;100.00;100368.94;5052752;28;20114;-49
2021/07/19 13:21:07;;;;;;;4.22;0.28;;;;;;;28.34;100.00;100361.53;5052230;28;20076;-49
2021/07/19 13:24:15;;;;;;;1.50;0.20;;;;;;;28.31;100.00;100362.72;5050428;28;20067;-48
2021/07/19 13:27:19;;;;;;;0.47;0.10;;;;;;;28.19;100.00;100373.16;5052238;28;20056;-48
2021/07/19 13:30:32;;;;;;;5.93;0.10;;;;;;;28.41;100.00;100369.28;5052726;28;20072;-48
2021/07/19 13:33:42;;;;;;;2.28;0.40;;;;;;;28.57;100.00;100366.28;5052661;28;20416;-48
2021/07/19 13:36:48;;;;;;;1.10;0.20;;;;;;;28.61;100.00;100355.19;5052300;28;20063;-48
2021/07/19 13:39:51;;;;;;;0.43;0.13;;;;;;;28.46;100.00;100365.41;5051944;28;20405;-48
2021/07/19 13:43:00;;;;;;;2.63;0.15;;;;;;;27.96;100.00;100361.09;5052123;28;20052;-48
2021/07/19 13:46:04;;;;;;;4.57;0.10;;;;;;;28.02;100.00;100364.53;5052337;28;20056;-48
2021/07/19 13:49:07;;;;;;;1.85;0.20;;;;;;;28.09;100.00;100362.94;5052240;28;20056;-48
2021/07/19 13:52:11;;;;;;;1.10;0.30;;;;;;;28.16;100.00;100359.22;5052318;28;20512;-48
2021/07/19 13:55:15;;;;;;;0.75;0.22;;;;;;;27.95;100.00;100364.53;5052049;28;20052;-48
2021/07/19 13:58:19;;;;;;;4.13;0.17;;;;;;;27.84;100.00;100356.41;5034808;28;20056;-48
2021/07/19 14:01:22;;;;;;;5.57;0.30;;;;;;;27.26;100.00;100352.78;5032216;28;20061;-48
2021/07/19 14:04:26;;;;;;;56.70;17.20;;;;;;;26.80;100.00;100349.38;5032046;28;20080;-48
2021/07/19 14:07:29;;;;;;;2.78;1.23;;;;;;;26.62;100.00;100352.63;5032355;28;20038;-48
2021/07/19 14:10:33;;;;;;;5.88;0.70;;;;;;;26.93;100.00;100349.13;5032175;28;20390;-48
2021/07/19 14:13:36;;;;;;;1.70;0.75;;;;;;;27.29;100.00;100348.00;5047878;28;20060;-48